createdAt,value
2017-12-14T00:00:18.627Z,21.94
2017-12-14T00:00:50.637Z,21.94
2017-12-14T00:01:22.669Z,21.99
2017-12-14T00:01:54.697Z,21.9
2017-12-14T00:02:26.679Z,21.96
2017-12-14T00:02:58.691Z,21.9
2017-12-14T00:03:30.646Z,21.92
2017-12-14T00:04:02.680Z,21.92
2017-12-14T00:04:34.677Z,21.92
2017-12-14T00:05:06.702Z,21.89
2017-12-14T00:05:38.718Z,21.92
2017-12-14T00:06:10.712Z,21.8
2017-12-14T00:06:42.646Z,21.9
2017-12-14T00:07:14.633Z,21.9
2017-12-14T00:07:46.647Z,21.9
2017-12-14T00:08:18.585Z,21.82
2017-12-14T00:08:50.601Z,21.8
2017-12-14T00:09:22.586Z,21.74
2017-12-14T00:09:54.631Z,21.89
2017-12-14T00:10:26.664Z,21.73
2017-12-14T00:10:58.700Z,21.8
2017-12-14T00:11:30.677Z,21.86
2017-12-14T00:12:02.716Z,21.89
2017-12-14T00:12:34.817Z,21.83
2017-12-14T00:13:06.909Z,21.9
2017-12-14T00:13:38.916Z,21.89
2017-12-14T00:14:10.898Z,21.77
2017-12-14T00:14:42.897Z,21.93
2017-12-14T00:15:14.927Z,21.86
2017-12-14T00:15:46.947Z,21.86
2017-12-14T00:16:18.933Z,21.92
2017-12-14T00:16:50.995Z,21.89
2017-12-14T00:17:23.012Z,21.96
2017-12-14T00:17:54.997Z,21.82
2017-12-14T00:18:26.983Z,21.9
2017-12-14T00:18:58.969Z,21.85
2017-12-14T00:19:30.947Z,21.86
2017-12-14T00:20:03.451Z,21.93
2017-12-14T00:20:35.459Z,21.93
2017-12-14T00:21:07.531Z,21.86
2017-12-14T00:21:39.532Z,21.96
2017-12-14T00:22:11.533Z,21.9
2017-12-14T00:22:43.536Z,21.83
2017-12-14T00:23:15.527Z,21.89
2017-12-14T00:23:47.572Z,21.85
2017-12-14T00:24:19.541Z,21.9
2017-12-14T00:24:51.523Z,21.93
2017-12-14T00:25:23.586Z,21.85
2017-12-14T00:25:55.601Z,21.9
2017-12-14T00:26:27.598Z,21.93
2017-12-14T00:26:59.630Z,21.86
2017-12-14T00:27:31.612Z,21.89
2017-12-14T00:28:03.663Z,21.92
2017-12-14T00:28:35.695Z,21.93
2017-12-14T00:29:07.807Z,21.92
2017-12-14T00:29:39.844Z,21.94
2017-12-14T00:30:11.835Z,21.93
2017-12-14T00:30:43.834Z,21.85
2017-12-14T00:31:15.844Z,21.86
2017-12-14T00:31:47.826Z,21.93
2017-12-14T00:32:19.959Z,21.94
2017-12-14T00:32:51.975Z,21.93
2017-12-14T00:33:24.021Z,21.86
2017-12-14T00:33:56.025Z,21.89
2017-12-14T00:34:28.081Z,21.9
2017-12-14T00:35:00.098Z,21.89
2017-12-14T00:35:32.155Z,21.96
2017-12-14T00:36:04.142Z,21.89
2017-12-14T00:36:36.227Z,21.9
2017-12-14T00:37:08.274Z,21.89
2017-12-14T00:37:40.255Z,21.89
2017-12-14T00:38:12.257Z,21.89
2017-12-14T00:38:44.255Z,21.77
2017-12-14T00:39:16.239Z,21.86
2017-12-14T00:39:48.253Z,21.86
2017-12-14T00:40:20.248Z,21.82
2017-12-14T00:40:53.153Z,21.92
2017-12-14T00:41:25.174Z,21.9
2017-12-14T00:41:57.203Z,21.82
2017-12-14T00:42:29.216Z,21.9
2017-12-14T00:43:01.283Z,21.86
2017-12-14T00:43:33.260Z,21.93
2017-12-14T00:44:05.290Z,21.89
2017-12-14T00:44:37.304Z,21.83
2017-12-14T00:45:09.391Z,21.9
2017-12-14T00:45:41.392Z,21.86
2017-12-14T00:46:13.413Z,21.94
2017-12-14T00:46:45.433Z,21.83
2017-12-14T00:47:17.405Z,21.93
2017-12-14T00:47:49.397Z,21.92
2017-12-14T00:48:21.350Z,21.86
2017-12-14T00:48:53.880Z,21.9
2017-12-14T00:49:25.955Z,21.94
2017-12-14T00:49:57.959Z,21.9
2017-12-14T00:50:29.949Z,21.99
2017-12-14T00:51:01.944Z,21.92
2017-12-14T00:51:33.972Z,21.96
2017-12-14T00:52:05.997Z,21.96
2017-12-14T00:52:37.962Z,21.94
2017-12-14T00:53:09.975Z,21.93
2017-12-14T00:53:41.980Z,21.92
2017-12-14T00:54:14.010Z,21.96
2017-12-14T00:54:46.011Z,21.89
2017-12-14T00:55:18.121Z,21.93
2017-12-14T00:55:50.240Z,21.94
2017-12-14T00:56:22.268Z,21.94
2017-12-14T00:56:54.324Z,22
2017-12-14T00:57:26.366Z,21.97
2017-12-14T00:57:58.405Z,21.99
2017-12-14T00:58:30.434Z,21.96
2017-12-14T00:59:02.465Z,21.94
2017-12-14T00:59:34.446Z,21.99
2017-12-14T01:00:06.546Z,22
2017-12-14T01:00:38.637Z,21.96
2017-12-14T01:01:10.659Z,21.96
2017-12-14T01:01:42.650Z,22
2017-12-14T01:02:14.663Z,21.94
2017-12-14T01:02:46.658Z,21.97
2017-12-14T01:03:18.754Z,22.02
2017-12-14T01:03:50.805Z,21.9
2017-12-14T01:04:22.812Z,21.97
2017-12-14T01:04:54.829Z,22.02
2017-12-14T01:05:26.874Z,22.05
2017-12-14T01:05:58.914Z,21.96
2017-12-14T01:06:30.908Z,22.04
2017-12-14T01:07:02.875Z,21.97
2017-12-14T01:07:34.895Z,21.99
2017-12-14T01:08:06.938Z,22
2017-12-14T01:08:38.942Z,22.04
2017-12-14T01:09:10.926Z,22.05
2017-12-14T01:09:42.959Z,22.04
2017-12-14T01:10:14.985Z,22
2017-12-14T01:10:47.024Z,22.04
2017-12-14T01:11:19.062Z,22.14
2017-12-14T01:11:51.079Z,22.05
2017-12-14T01:12:23.084Z,22.09
2017-12-14T01:12:55.126Z,22.05
2017-12-14T01:13:27.127Z,22.05
2017-12-14T01:13:59.144Z,22.04
2017-12-14T01:14:31.168Z,22.04
2017-12-14T01:15:03.149Z,22.05
2017-12-14T01:15:35.159Z,22.02
2017-12-14T01:16:07.189Z,22.09
2017-12-14T01:16:39.176Z,22.09
2017-12-14T01:17:11.196Z,22.11
2017-12-14T01:17:43.162Z,22.12
2017-12-14T01:18:15.137Z,22.08
2017-12-14T01:18:47.130Z,22.11
2017-12-14T01:19:19.170Z,22.09
2017-12-14T01:19:51.161Z,22.05
2017-12-14T01:20:23.140Z,22.15
2017-12-14T01:20:55.129Z,22.02
2017-12-14T01:21:27.120Z,22.12
2017-12-14T01:21:59.110Z,22.11
2017-12-14T01:22:31.120Z,22.11
2017-12-14T01:23:03.101Z,22.12
2017-12-14T01:23:35.099Z,22.05
2017-12-14T01:24:07.127Z,22.15
2017-12-14T01:24:39.077Z,22.12
2017-12-14T01:25:11.067Z,22.12
2017-12-14T01:25:43.050Z,22.23
2017-12-14T01:26:15.094Z,22.12
2017-12-14T01:26:47.093Z,22.08
2017-12-14T01:27:19.057Z,22.11
2017-12-14T01:27:51.045Z,22.11
2017-12-14T01:28:23.080Z,22.15
2017-12-14T01:28:55.095Z,22.12
2017-12-14T01:29:27.083Z,22.23
2017-12-14T01:29:59.124Z,22.2
2017-12-14T01:30:31.126Z,22.05
2017-12-14T01:31:03.142Z,22.2
2017-12-14T01:31:35.174Z,22.18
2017-12-14T01:32:07.126Z,22.07
2017-12-14T01:32:39.070Z,22.24
2017-12-14T01:33:11.089Z,22.09
2017-12-14T01:33:43.153Z,22.12
2017-12-14T01:34:15.185Z,22.08
2017-12-14T01:34:47.181Z,22.11
2017-12-14T01:35:19.183Z,22.09
2017-12-14T01:35:51.207Z,22.08
2017-12-14T01:36:23.204Z,22.09
2017-12-14T01:36:55.234Z,22.24
2017-12-14T01:37:27.223Z,22.16
2017-12-14T01:37:59.255Z,22.12
2017-12-14T01:38:31.267Z,22.15
2017-12-14T01:39:03.250Z,22.08
2017-12-14T01:39:35.280Z,22.08
2017-12-14T01:40:07.296Z,22.09
2017-12-14T01:40:39.308Z,22.16
2017-12-14T01:41:11.355Z,22.09
2017-12-14T01:41:43.350Z,22.14
2017-12-14T01:42:15.374Z,22.11
2017-12-14T01:42:47.397Z,22.14
2017-12-14T01:43:19.404Z,22.09
2017-12-14T01:43:51.400Z,22.12
2017-12-14T01:44:23.446Z,22.15
2017-12-14T01:44:55.494Z,22.07
2017-12-14T01:45:27.513Z,22.08
2017-12-14T01:45:59.533Z,22.22
2017-12-14T01:46:31.559Z,22.18
2017-12-14T01:47:03.605Z,22.15
2017-12-14T01:47:35.705Z,22.07
2017-12-14T01:48:07.806Z,22.12
2017-12-14T01:48:39.829Z,22.09
2017-12-14T01:49:11.853Z,22.12
2017-12-14T01:49:43.869Z,22.12
2017-12-14T01:50:15.915Z,22.24
2017-12-14T01:50:47.965Z,22.08
2017-12-14T01:51:19.972Z,22.2
2017-12-14T01:51:51.950Z,22.27
2017-12-14T01:52:23.983Z,22.07
2017-12-14T01:52:56.015Z,22.2
2017-12-14T01:53:28.028Z,22.2
2017-12-14T01:54:00.036Z,22.15
2017-12-14T01:54:32.096Z,22.15
2017-12-14T01:55:04.246Z,22.15
2017-12-14T01:55:36.831Z,22.18
2017-12-14T01:56:08.880Z,22.26
2017-12-14T01:56:40.874Z,22.08
2017-12-14T01:57:12.855Z,22.22
2017-12-14T01:57:44.843Z,22.12
2017-12-14T01:58:16.872Z,22.07
2017-12-14T01:58:48.909Z,22.22
2017-12-14T01:59:20.927Z,22.24
2017-12-14T01:59:53.008Z,22.09
2017-12-14T02:00:24.995Z,22.09
2017-12-14T02:00:57.023Z,22.09
2017-12-14T02:01:29.045Z,22.22
2017-12-14T02:02:01.128Z,22.04
2017-12-14T02:02:33.139Z,22.09
2017-12-14T02:03:05.155Z,22.18
2017-12-14T02:03:37.166Z,22.08
2017-12-14T02:04:09.170Z,22.14
2017-12-14T02:04:41.237Z,22.09
2017-12-14T02:05:13.252Z,22.2
2017-12-14T02:05:45.264Z,22.2
2017-12-14T02:06:17.275Z,22.23
2017-12-14T02:06:49.241Z,22.23
2017-12-14T02:07:21.219Z,22.2
2017-12-14T02:07:53.933Z,22.22
2017-12-14T02:08:25.924Z,22.12
2017-12-14T02:08:57.916Z,22.24
2017-12-14T02:09:29.940Z,22.24
2017-12-14T02:10:01.971Z,22.2
2017-12-14T02:10:33.981Z,22.23
2017-12-14T02:11:06.002Z,22.2
2017-12-14T02:11:38.033Z,22.18
2017-12-14T02:12:10.030Z,22.09
2017-12-14T02:12:42.043Z,22.2
2017-12-14T02:13:14.079Z,22.11
2017-12-14T02:13:46.072Z,22.07
2017-12-14T02:14:18.078Z,22.14
2017-12-14T02:14:50.067Z,22.2
2017-12-14T02:15:22.123Z,22.09
2017-12-14T02:15:54.152Z,22.15
2017-12-14T02:16:26.749Z,22.23
2017-12-14T02:16:58.771Z,22.07
2017-12-14T02:17:30.780Z,22.09
2017-12-14T02:18:02.777Z,22.12
2017-12-14T02:18:34.824Z,22.09
2017-12-14T02:19:06.786Z,22.07
2017-12-14T02:19:38.799Z,22.23
2017-12-14T02:20:10.790Z,22.22
2017-12-14T02:20:42.828Z,22.2
2017-12-14T02:21:14.889Z,22.08
2017-12-14T02:21:46.888Z,22.12
2017-12-14T02:22:18.866Z,22.08
2017-12-14T02:22:50.902Z,22.18
2017-12-14T02:23:23.029Z,22.16
2017-12-14T02:23:55.033Z,22.08
2017-12-14T02:24:27.068Z,22.22
2017-12-14T02:24:59.050Z,22.09
2017-12-14T02:25:31.070Z,22.07
2017-12-14T02:26:03.058Z,22.07
2017-12-14T02:26:35.145Z,22.11
2017-12-14T02:27:07.170Z,22.2
2017-12-14T02:27:39.202Z,22.2
2017-12-14T02:28:11.195Z,22.22
2017-12-14T02:28:43.190Z,22.2
2017-12-14T02:29:15.148Z,22.23
2017-12-14T02:29:47.177Z,22.23
2017-12-14T02:30:19.183Z,22.23
2017-12-14T02:30:51.163Z,22.23
2017-12-14T02:31:23.220Z,22.24
2017-12-14T02:31:55.227Z,22.2
2017-12-14T02:32:27.234Z,22.24
2017-12-14T02:32:59.199Z,22.14
2017-12-14T02:33:31.215Z,22.23
2017-12-14T02:34:03.253Z,22.24
2017-12-14T02:34:35.279Z,22.26
2017-12-14T02:35:07.282Z,22.27
2017-12-14T02:35:39.302Z,22.24
2017-12-14T02:36:11.393Z,22.23
2017-12-14T02:36:43.372Z,22.26
2017-12-14T02:37:15.400Z,22.27
2017-12-14T02:37:47.418Z,22.24
2017-12-14T02:38:19.459Z,22.29
2017-12-14T02:38:51.477Z,22.26
2017-12-14T02:39:23.499Z,22.27
2017-12-14T02:39:55.500Z,22.26
2017-12-14T02:40:27.512Z,22.26
2017-12-14T02:40:59.552Z,22.22
2017-12-14T02:41:31.584Z,22.27
2017-12-14T02:42:03.606Z,22.3
2017-12-14T02:42:35.713Z,22.22
2017-12-14T02:43:07.761Z,22.23
2017-12-14T02:43:39.765Z,22.16
2017-12-14T02:44:11.782Z,22.24
2017-12-14T02:44:43.849Z,22.22
2017-12-14T02:45:15.872Z,22.24
2017-12-14T02:45:47.881Z,22.26
2017-12-14T02:46:19.948Z,22.3
2017-12-14T02:46:51.950Z,22.31
2017-12-14T02:47:23.926Z,22.23
2017-12-14T02:47:55.955Z,22.23
2017-12-14T02:48:27.967Z,22.22
2017-12-14T02:48:59.966Z,22.14
2017-12-14T02:49:31.961Z,22.3
2017-12-14T02:50:04.038Z,22.2
2017-12-14T02:50:36.041Z,22.15
2017-12-14T02:51:08.114Z,22.23
2017-12-14T02:51:40.836Z,22.24
2017-12-14T02:52:12.862Z,22.29
2017-12-14T02:52:44.863Z,22.26
2017-12-14T02:53:16.872Z,22.23
2017-12-14T02:53:48.856Z,22.29
2017-12-14T02:54:20.827Z,22.26
2017-12-14T02:54:52.773Z,22.24
2017-12-14T02:55:24.791Z,22.22
2017-12-14T02:55:56.804Z,22.26
2017-12-14T02:56:28.844Z,22.26
2017-12-14T02:57:00.857Z,22.31
2017-12-14T02:57:32.852Z,22.29
2017-12-14T02:58:04.890Z,22.31
2017-12-14T02:58:36.872Z,22.33
2017-12-14T02:59:08.888Z,22.38
2017-12-14T02:59:40.902Z,22.24
2017-12-14T03:00:12.901Z,22.33
2017-12-14T03:00:44.914Z,22.27
2017-12-14T03:01:16.885Z,22.31
2017-12-14T03:01:48.854Z,22.31
2017-12-14T03:02:20.882Z,22.26
2017-12-14T03:02:52.905Z,22.27
2017-12-14T03:03:24.901Z,22.31
2017-12-14T03:03:57.560Z,22.34
2017-12-14T03:04:29.553Z,22.34
2017-12-14T03:05:01.602Z,22.36
2017-12-14T03:05:34.448Z,22.34
2017-12-14T03:06:06.478Z,22.34
2017-12-14T03:06:38.505Z,22.31
2017-12-14T03:07:10.547Z,22.33
2017-12-14T03:07:42.557Z,22.36
2017-12-14T03:08:14.595Z,22.38
2017-12-14T03:08:46.704Z,22.34
2017-12-14T03:09:18.824Z,22.36
2017-12-14T03:09:50.827Z,22.3
2017-12-14T03:10:22.830Z,22.33
2017-12-14T03:10:54.880Z,22.38
2017-12-14T03:11:26.956Z,22.42
2017-12-14T03:11:58.952Z,22.38
2017-12-14T03:12:30.987Z,22.41
2017-12-14T03:13:02.983Z,22.39
2017-12-14T03:13:34.988Z,22.42
2017-12-14T03:14:06.989Z,22.34
2017-12-14T03:14:38.972Z,22.33
2017-12-14T03:15:10.965Z,22.42
2017-12-14T03:15:43.088Z,22.42
2017-12-14T03:16:15.115Z,22.46
2017-12-14T03:16:47.131Z,22.34
2017-12-14T03:17:19.154Z,22.41
2017-12-14T03:17:51.136Z,22.44
2017-12-14T03:18:23.190Z,22.39
2017-12-14T03:18:55.236Z,22.45
2017-12-14T03:19:27.269Z,22.44
2017-12-14T03:19:59.285Z,22.45
2017-12-14T03:20:31.348Z,22.42
2017-12-14T03:21:03.358Z,22.46
2017-12-14T03:21:35.349Z,22.49
2017-12-14T03:22:08.046Z,22.45
2017-12-14T03:22:40.081Z,22.44
2017-12-14T03:23:12.093Z,22.42
2017-12-14T03:23:44.131Z,22.41
2017-12-14T03:24:16.115Z,22.45
2017-12-14T03:24:48.120Z,22.48
2017-12-14T03:25:20.117Z,22.46
2017-12-14T03:25:52.135Z,22.45
2017-12-14T03:26:24.153Z,22.48
2017-12-14T03:26:56.175Z,22.42
2017-12-14T03:27:28.179Z,22.45
2017-12-14T03:28:00.210Z,22.44
2017-12-14T03:28:32.243Z,22.46
2017-12-14T03:29:04.246Z,22.51
2017-12-14T03:29:36.263Z,22.45
2017-12-14T03:30:08.321Z,22.46
2017-12-14T03:30:40.239Z,22.45
2017-12-14T03:31:12.268Z,22.46
2017-12-14T03:31:44.257Z,22.46
2017-12-14T03:32:16.293Z,22.44
2017-12-14T03:32:48.306Z,22.44
2017-12-14T03:33:20.423Z,22.54
2017-12-14T03:33:52.437Z,22.54
2017-12-14T03:34:24.461Z,22.45
2017-12-14T03:34:56.468Z,22.48
2017-12-14T03:35:28.511Z,22.46
2017-12-14T03:36:00.520Z,22.48
2017-12-14T03:36:32.545Z,22.51
2017-12-14T03:37:04.716Z,22.48
2017-12-14T03:37:36.747Z,22.46
2017-12-14T03:38:08.754Z,22.52
2017-12-14T03:38:40.729Z,22.49
2017-12-14T03:39:12.678Z,22.46
2017-12-14T03:39:44.702Z,22.51
2017-12-14T03:40:16.720Z,22.42
2017-12-14T03:40:48.677Z,22.42
2017-12-14T03:41:20.700Z,22.52
2017-12-14T03:41:52.841Z,22.41
2017-12-14T03:42:24.864Z,22.45
2017-12-14T03:42:56.907Z,22.46
2017-12-14T03:43:28.987Z,22.45
2017-12-14T03:44:00.969Z,22.48
2017-12-14T03:44:32.970Z,22.44
2017-12-14T03:45:05.005Z,22.42
2017-12-14T03:45:37.128Z,22.46
2017-12-14T03:46:09.151Z,22.49
2017-12-14T03:46:41.183Z,22.51
2017-12-14T03:47:13.210Z,22.51
2017-12-14T03:47:45.174Z,22.42
2017-12-14T03:48:17.193Z,22.52
2017-12-14T03:48:49.253Z,22.45
2017-12-14T03:49:21.293Z,22.52
2017-12-14T03:49:53.427Z,22.42
2017-12-14T03:50:25.460Z,22.44
2017-12-14T03:50:57.486Z,22.42
2017-12-14T03:51:29.489Z,22.45
2017-12-14T03:52:01.511Z,22.46
2017-12-14T03:52:33.502Z,22.48
2017-12-14T03:53:05.526Z,22.48
2017-12-14T03:53:37.500Z,22.44
2017-12-14T03:54:09.518Z,22.46
2017-12-14T03:54:41.515Z,22.48
2017-12-14T03:55:13.512Z,22.44
2017-12-14T03:55:45.502Z,22.45
2017-12-14T03:56:17.529Z,22.44
2017-12-14T03:56:49.534Z,22.46
2017-12-14T03:57:21.517Z,22.45
2017-12-14T03:57:53.586Z,22.46
2017-12-14T03:58:25.553Z,22.49
2017-12-14T03:58:57.557Z,22.49
2017-12-14T03:59:29.530Z,22.52
2017-12-14T04:00:01.578Z,22.45
2017-12-14T04:00:33.595Z,22.45
2017-12-14T04:01:05.581Z,22.42
2017-12-14T04:01:37.656Z,22.46
2017-12-14T04:02:09.689Z,22.44
2017-12-14T04:02:41.680Z,22.48
2017-12-14T04:03:13.692Z,22.48
2017-12-14T04:03:45.669Z,22.52
2017-12-14T04:04:17.684Z,22.48
2017-12-14T04:04:49.718Z,22.45
2017-12-14T04:05:21.671Z,22.48
2017-12-14T04:05:53.665Z,22.51
2017-12-14T04:06:25.784Z,22.45
2017-12-14T04:06:57.872Z,22.52
2017-12-14T04:07:29.840Z,22.55
2017-12-14T04:08:01.859Z,22.45
2017-12-14T04:08:33.879Z,22.51
2017-12-14T04:09:05.861Z,22.45
2017-12-14T04:09:37.866Z,22.52
2017-12-14T04:10:09.858Z,22.52
2017-12-14T04:10:41.868Z,22.48
2017-12-14T04:11:13.898Z,22.51
2017-12-14T04:11:45.878Z,22.48
2017-12-14T04:12:17.913Z,22.44
2017-12-14T04:12:50.021Z,22.51
2017-12-14T04:13:21.995Z,22.48
2017-12-14T04:13:54.030Z,22.48
2017-12-14T04:14:26.034Z,22.42
2017-12-14T04:14:58.102Z,22.54
2017-12-14T04:15:30.114Z,22.51
2017-12-14T04:16:02.121Z,22.55
2017-12-14T04:16:34.145Z,22.49
2017-12-14T04:17:06.138Z,22.48
2017-12-14T04:17:38.158Z,22.51
2017-12-14T04:18:10.282Z,22.51
2017-12-14T04:18:42.262Z,22.49
2017-12-14T04:19:14.312Z,22.48
2017-12-14T04:19:46.329Z,22.52
2017-12-14T04:20:18.365Z,22.48
2017-12-14T04:20:50.389Z,22.49
2017-12-14T04:21:23.190Z,22.51
2017-12-14T04:21:55.192Z,22.49
2017-12-14T04:22:27.191Z,22.45
2017-12-14T04:22:59.189Z,22.55
2017-12-14T04:23:31.278Z,22.48
2017-12-14T04:24:03.289Z,22.51
2017-12-14T04:24:35.322Z,22.45
2017-12-14T04:25:07.356Z,22.49
2017-12-14T04:25:39.364Z,22.48
2017-12-14T04:26:11.387Z,22.55
2017-12-14T04:26:43.393Z,22.51
2017-12-14T04:27:15.476Z,22.44
2017-12-14T04:27:47.500Z,22.48
2017-12-14T04:28:19.535Z,22.51
2017-12-14T04:28:51.565Z,22.45
2017-12-14T04:29:23.628Z,22.46
2017-12-14T04:29:55.649Z,22.51
2017-12-14T04:30:27.664Z,22.46
2017-12-14T04:30:59.707Z,22.49
2017-12-14T04:31:31.706Z,22.48
2017-12-14T04:32:03.730Z,22.54
2017-12-14T04:32:35.742Z,22.6
2017-12-14T04:33:07.768Z,22.55
2017-12-14T04:33:39.805Z,22.45
2017-12-14T04:34:11.837Z,22.6
2017-12-14T04:34:43.818Z,22.51
2017-12-14T04:35:15.856Z,22.63
2017-12-14T04:35:47.878Z,22.59
2017-12-14T04:36:19.897Z,22.6
2017-12-14T04:36:51.916Z,22.6
2017-12-14T04:37:23.877Z,22.59
2017-12-14T04:37:55.885Z,22.61
2017-12-14T04:38:27.895Z,22.63
2017-12-14T04:38:59.840Z,22.57
2017-12-14T04:39:31.883Z,22.59
2017-12-14T04:40:03.854Z,22.6
2017-12-14T04:40:35.873Z,22.6
2017-12-14T04:41:07.946Z,22.59
2017-12-14T04:41:39.984Z,22.6
2017-12-14T04:42:12.013Z,22.6
2017-12-14T04:42:44.021Z,22.6
2017-12-14T04:43:16.818Z,22.6
2017-12-14T04:43:48.859Z,22.66
2017-12-14T04:44:20.912Z,22.59
2017-12-14T04:44:52.885Z,22.63
2017-12-14T04:45:25.595Z,22.63
2017-12-14T04:45:57.613Z,22.64
2017-12-14T04:46:29.621Z,22.57
2017-12-14T04:47:01.625Z,22.59
2017-12-14T04:47:33.613Z,22.61
2017-12-14T04:48:05.611Z,22.63
2017-12-14T04:48:37.634Z,22.61
2017-12-14T04:49:10.398Z,22.64
2017-12-14T04:49:42.428Z,22.59
2017-12-14T04:50:14.530Z,22.67
2017-12-14T04:50:46.560Z,22.67
2017-12-14T04:51:18.540Z,22.64
2017-12-14T04:51:50.532Z,22.6
2017-12-14T04:52:22.500Z,22.66
2017-12-14T04:52:54.511Z,22.61
2017-12-14T04:53:26.491Z,22.61
2017-12-14T04:53:58.483Z,22.63
2017-12-14T04:54:30.449Z,22.61
2017-12-14T04:55:02.468Z,22.63
2017-12-14T04:55:34.466Z,22.6
2017-12-14T04:56:06.439Z,22.6
2017-12-14T04:56:38.433Z,22.63
2017-12-14T04:57:10.444Z,22.6
2017-12-14T04:57:42.522Z,22.6
2017-12-14T04:58:14.553Z,22.64
2017-12-14T04:58:46.587Z,22.64
2017-12-14T04:59:18.632Z,22.63
2017-12-14T04:59:50.621Z,22.64
2017-12-14T05:00:22.637Z,22.66
2017-12-14T05:00:54.642Z,22.67
2017-12-14T05:01:26.672Z,22.67
2017-12-14T05:01:58.685Z,22.67
2017-12-14T05:02:30.716Z,22.67
2017-12-14T05:03:02.696Z,22.67
2017-12-14T05:03:34.714Z,22.66
2017-12-14T05:04:06.740Z,22.67
2017-12-14T05:04:38.698Z,22.67
2017-12-14T05:05:10.689Z,22.59
2017-12-14T05:05:42.712Z,22.7
2017-12-14T05:06:14.679Z,22.7
2017-12-14T05:06:46.658Z,22.69
2017-12-14T05:07:18.693Z,22.71
2017-12-14T05:07:50.635Z,22.66
2017-12-14T05:08:22.609Z,22.64
2017-12-14T05:08:54.611Z,22.78
2017-12-14T05:09:26.618Z,22.76
2017-12-14T05:09:58.636Z,22.69
2017-12-14T05:10:30.650Z,22.67
2017-12-14T05:11:02.632Z,22.69
2017-12-14T05:11:34.603Z,22.64
2017-12-14T05:12:06.640Z,22.66
2017-12-14T05:12:38.634Z,22.66
2017-12-14T05:13:11.301Z,22.64
2017-12-14T05:13:43.283Z,22.66
2017-12-14T05:14:15.286Z,22.6
2017-12-14T05:14:47.342Z,22.6
2017-12-14T05:15:19.334Z,22.61
2017-12-14T05:15:51.361Z,22.63
2017-12-14T05:16:23.366Z,22.64
2017-12-14T05:16:55.384Z,22.64
2017-12-14T05:17:27.405Z,22.6
2017-12-14T05:17:59.475Z,22.7
2017-12-14T05:18:31.508Z,22.64
2017-12-14T05:19:03.524Z,22.61
2017-12-14T05:19:35.523Z,22.63
2017-12-14T05:20:07.498Z,22.63
2017-12-14T05:20:39.506Z,22.63
2017-12-14T05:21:11.558Z,22.73
2017-12-14T05:21:43.553Z,22.6
2017-12-14T05:22:15.580Z,22.63
2017-12-14T05:22:47.618Z,22.64
2017-12-14T05:23:19.603Z,22.63
2017-12-14T05:23:51.644Z,22.63
2017-12-14T05:24:23.624Z,22.67
2017-12-14T05:24:55.599Z,22.57
2017-12-14T05:25:27.612Z,22.66
2017-12-14T05:25:59.658Z,22.63
2017-12-14T05:26:31.664Z,22.64
2017-12-14T05:27:03.647Z,22.76
2017-12-14T05:27:35.645Z,22.61
2017-12-14T05:28:07.634Z,22.59
2017-12-14T05:28:39.641Z,22.6
2017-12-14T05:29:11.724Z,22.63
2017-12-14T05:29:43.732Z,22.59
2017-12-14T05:30:15.717Z,22.54
2017-12-14T05:30:47.708Z,22.66
2017-12-14T05:31:19.724Z,22.6
2017-12-14T05:31:51.672Z,22.57
2017-12-14T05:32:23.737Z,22.57
2017-12-14T05:32:55.763Z,22.61
2017-12-14T05:33:28.330Z,22.63
2017-12-14T05:34:00.492Z,22.57
2017-12-14T05:34:32.517Z,22.57
2017-12-14T05:35:04.528Z,22.59
2017-12-14T05:35:36.586Z,22.6
2017-12-14T05:36:08.607Z,22.61
2017-12-14T05:36:40.604Z,22.57
2017-12-14T05:37:12.623Z,22.59
2017-12-14T05:37:44.616Z,22.55
2017-12-14T05:38:16.657Z,22.63
2017-12-14T05:38:48.671Z,22.6
2017-12-14T05:39:20.666Z,22.57
2017-12-14T05:39:52.666Z,22.64
2017-12-14T05:40:25.319Z,22.55
2017-12-14T05:40:57.333Z,22.63
2017-12-14T05:41:29.294Z,22.59
2017-12-14T05:42:01.318Z,22.59
2017-12-14T05:42:33.329Z,22.61
2017-12-14T05:43:05.362Z,22.66
2017-12-14T05:43:37.327Z,22.6
2017-12-14T05:44:09.333Z,22.6
2017-12-14T05:44:41.377Z,22.57
2017-12-14T05:45:13.414Z,22.61
2017-12-14T05:45:45.419Z,22.66
2017-12-14T05:46:18.308Z,22.66
2017-12-14T05:46:50.297Z,22.66
2017-12-14T05:47:22.343Z,22.61
2017-12-14T05:47:54.330Z,22.55
2017-12-14T05:48:26.329Z,22.67
2017-12-14T05:48:58.338Z,22.67
2017-12-14T05:49:30.332Z,22.61
2017-12-14T05:50:02.343Z,22.66
2017-12-14T05:50:34.364Z,22.61
2017-12-14T05:51:06.443Z,22.6
2017-12-14T05:51:38.556Z,22.63
2017-12-14T05:52:10.572Z,22.59
2017-12-14T05:52:42.702Z,22.66
2017-12-14T05:53:14.652Z,22.66
2017-12-14T05:53:46.708Z,22.64
2017-12-14T05:54:18.715Z,22.59
2017-12-14T05:54:50.814Z,22.61
2017-12-14T05:55:22.784Z,22.59
2017-12-14T05:55:54.819Z,22.6
2017-12-14T05:56:26.789Z,22.61
2017-12-14T05:56:58.752Z,22.6
2017-12-14T05:57:30.777Z,22.64
2017-12-14T05:58:02.791Z,22.6
2017-12-14T05:58:34.774Z,22.61
2017-12-14T05:59:06.776Z,22.57
2017-12-14T05:59:38.781Z,22.57
2017-12-14T06:00:10.786Z,22.59
2017-12-14T06:00:42.773Z,22.59
2017-12-14T06:01:14.771Z,22.59
2017-12-14T06:01:47.662Z,22.63
2017-12-14T06:02:19.661Z,22.52
2017-12-14T06:02:51.652Z,22.55
2017-12-14T06:03:23.680Z,22.52
2017-12-14T06:03:55.806Z,22.6
2017-12-14T06:04:28.549Z,22.48
2017-12-14T06:05:00.556Z,22.49
2017-12-14T06:05:32.578Z,22.6
2017-12-14T06:06:04.629Z,22.55
2017-12-14T06:06:36.613Z,22.59
2017-12-14T06:07:08.624Z,22.55
2017-12-14T06:07:40.649Z,22.52
2017-12-14T06:08:12.671Z,22.48
2017-12-14T06:08:44.672Z,22.48
2017-12-14T06:09:16.697Z,22.51
2017-12-14T06:09:48.731Z,22.52
2017-12-14T06:10:20.837Z,22.49
2017-12-14T06:10:52.803Z,22.45
2017-12-14T06:11:24.841Z,22.45
2017-12-14T06:11:56.852Z,22.44
2017-12-14T06:12:28.851Z,22.44
2017-12-14T06:13:00.830Z,22.48
2017-12-14T06:13:32.917Z,22.46
2017-12-14T06:14:04.930Z,22.49
2017-12-14T06:14:36.969Z,22.51
2017-12-14T06:15:08.919Z,22.42
2017-12-14T06:15:43.632Z,22.55
2017-12-14T06:16:15.627Z,22.48
2017-12-14T06:16:47.653Z,22.55
2017-12-14T06:17:19.666Z,22.49
2017-12-14T06:17:51.712Z,22.51
2017-12-14T06:18:23.762Z,22.48
2017-12-14T06:18:55.784Z,22.51
2017-12-14T06:19:27.790Z,22.45
2017-12-14T06:19:59.843Z,22.54
2017-12-14T06:20:31.972Z,22.48
2017-12-14T06:21:03.962Z,22.54
2017-12-14T06:21:35.969Z,22.48
2017-12-14T06:22:07.945Z,22.48
2017-12-14T06:22:39.966Z,22.51
2017-12-14T06:23:11.965Z,22.52
2017-12-14T06:23:44.051Z,22.49
2017-12-14T06:24:16.031Z,22.52
2017-12-14T06:24:48.046Z,22.49
2017-12-14T06:25:20.027Z,22.48
2017-12-14T06:25:52.058Z,22.48
2017-12-14T06:26:24.077Z,22.49
2017-12-14T06:26:56.058Z,22.45
2017-12-14T06:27:28.079Z,22.51
2017-12-14T06:28:00.074Z,22.45
2017-12-14T06:28:32.165Z,22.44
2017-12-14T06:29:04.198Z,22.51
2017-12-14T06:29:36.215Z,22.44
2017-12-14T06:30:08.198Z,22.46
2017-12-14T06:30:40.212Z,22.41
2017-12-14T06:31:12.201Z,22.44
2017-12-14T06:31:44.221Z,22.46
2017-12-14T06:32:16.236Z,22.45
2017-12-14T06:32:48.322Z,22.41
2017-12-14T06:33:20.325Z,22.46
2017-12-14T06:33:52.329Z,22.45
2017-12-14T06:34:24.350Z,22.45
2017-12-14T06:34:56.410Z,22.42
2017-12-14T06:35:28.404Z,22.39
2017-12-14T06:36:00.419Z,22.42
2017-12-14T06:36:32.502Z,22.46
2017-12-14T06:37:04.553Z,22.45
2017-12-14T06:37:36.569Z,22.41
2017-12-14T06:38:08.637Z,22.44
2017-12-14T06:38:40.647Z,22.44
2017-12-14T06:39:12.623Z,22.36
2017-12-14T06:39:44.604Z,22.39
2017-12-14T06:40:16.632Z,22.41
2017-12-14T06:40:48.647Z,22.41
2017-12-14T06:41:20.721Z,22.44
2017-12-14T06:41:52.722Z,22.39
2017-12-14T06:42:24.694Z,22.38
2017-12-14T06:42:56.717Z,22.38
2017-12-14T06:43:28.735Z,22.42
2017-12-14T06:44:00.760Z,22.42
2017-12-14T06:44:32.739Z,22.38
2017-12-14T06:45:04.725Z,22.31
2017-12-14T06:45:36.735Z,22.38
2017-12-14T06:46:08.858Z,22.33
2017-12-14T06:46:40.898Z,22.42
2017-12-14T06:47:12.910Z,22.42
2017-12-14T06:47:44.947Z,22.46
2017-12-14T06:48:16.941Z,22.36
2017-12-14T06:48:48.939Z,22.42
2017-12-14T06:49:21.011Z,22.42
2017-12-14T06:49:53.020Z,22.36
2017-12-14T06:50:25.063Z,22.36
2017-12-14T06:50:57.193Z,22.34
2017-12-14T06:51:29.158Z,22.41
2017-12-14T06:52:01.172Z,22.36
2017-12-14T06:52:33.217Z,22.36
2017-12-14T06:53:05.217Z,22.33
2017-12-14T06:53:37.262Z,22.42
2017-12-14T06:54:09.838Z,22.33